Time;durP1;ratioP1;P1;durP2;ratioP2;P2;SDS_P1;SDS_P2;PMS_P1;PMS_P2;Temp;Humidity;BMP_temperature;BMP_pressure;BME280_temperature;BME280_humidity;BME280_pressure;Samples;Min_cycle;Max_cycle;Signal;HPM_P1;HPM_P2
2022/07/18 00:00:17;;;;;;;;;;;;;;;;;;1036286;28;4042;-52
2022/07/18 00:01:07;;;;;;;;;;;;;;;;;;1033747;28;4436;-54
2022/07/18 00:01:37;;;;;;;;;;;;;;;;;;1036408;28;1586;-51
2022/07/18 00:02:07;;;;;;;;;;;;;;;;;;1035204;28;3926;-54
2022/07/18 00:02:38;;;;;;;;;;;;;;;;;;1039777;28;1736;-52
2022/07/18 00:03:08;;;;;;;;;;;;;;;;;;1039680;28;3811;-52
2022/07/18 00:03:38;;;;;;;;;;;;;;;;;;1039433;28;1581;-50
2022/07/18 00:04:09;;;;;;;;;;;;;;;;;;1043717;28;4248;-54
2022/07/18 00:04:39;;;;;;;;;;;;;;;;;;1044315;28;1683;-51
2022/07/18 00:05:09;;;;;;;;;;;;;;;;;;1045186;28;3880;-54
2022/07/18 00:05:39;;;;;;;;;;;;;;;;;;1044946;28;1824;-53
2022/07/18 00:06:10;;;;;;;;;;;;;;;;;;1044765;28;3880;-50
2022/07/18 00:06:40;;;;;;;;;;;;;;;;;;1040154;28;1638;-54
2022/07/18 00:07:11;;;;;;;;;;;;;;;;;;1040408;28;4547;-52
2022/07/18 00:07:41;;;;;;;;;;;;;;;;;;1039990;28;1607;-52
2022/07/18 00:08:11;;;;;;;;;;;;;;;;;;1039991;28;4026;-51
2022/07/18 00:08:41;;;;;;;;;;;;;;;;;;1044282;28;2190;-55
2022/07/18 00:09:12;;;;;;;;;;;;;;;;;;1044611;28;4022;-53
2022/07/18 00:09:43;;;;;;;;;;;;;;;;;;1045687;28;1763;-50
2022/07/18 00:10:13;;;;;;;;;;;;;;;;;;1044010;28;3978;-53
2022/07/18 00:10:43;;;;;;;;;;;;;;;;;;1045697;28;1658;-52
2022/07/18 00:11:14;;;;;;;;;;;;;;;;;;1040016;28;4056;-52
2022/07/18 00:11:44;;;;;;;;;;;;;;;;;;1037102;28;1258;-55
2022/07/18 00:12:15;;;;;;;;;;;;;;;;;;1035919;28;4472;-52
2022/07/18 00:12:45;;;;;;;;;;;;;;;;;;1037049;28;1899;-54
2022/07/18 00:13:15;;;;;;;;;;;;;;;;;;1042047;28;4043;-48
2022/07/18 00:13:46;;;;;;;;;;;;;;;;;;1044773;28;1678;-54
2022/07/18 00:14:23;;;;;;;;;;;;;;;;;;1043555;28;4020;-52
2022/07/18 00:15:00;;;;;;;;;;;;;;;;;;1045292;28;1396;-51
2022/07/18 00:15:30;;;;;;;;;;;;;;;;;;1044700;28;3837;-52
2022/07/18 00:16:00;;;;;;;;;;;;;;;;;;1041239;28;4179;-50
2022/07/18 00:16:31;;;;;;;;;;;;;;;;;;1040639;28;1861;-48
2022/07/18 00:17:01;;;;;;;;;;;;;;;;;;1041778;28;4321;-54
2022/07/18 00:17:32;;;;;;;;;;;;;;;;;;1039938;28;1655;-53
2022/07/18 00:18:08;;;;;;;;;;;;;;;;;;1045765;28;4124;-51
2022/07/18 00:18:39;;;;;;;;;;;;;;;;;;1044636;28;1576;-49
2022/07/18 00:19:09;;;;;;;;;;;;;;;;;;1045712;28;4137;-51
2022/07/18 00:19:40;;;;;;;;;;;;;;;;;;1045643;28;2002;-53
2022/07/18 00:20:10;;;;;;;;;;;;;;;;;;1044159;28;3775;-55
2022/07/18 00:20:42;;;;;;;;;;;;;;;;;;1037632;28;1354;-52
2022/07/18 00:21:12;;;;;;;;;;;;;;;;;;1035467;28;4692;-52
2022/07/18 00:21:43;;;;;;;;;;;;;;;;;;1038297;28;1528;-52
2022/07/18 00:22:13;;;;;;;;;;;;;;;;;;1037861;28;3793;-53
2022/07/18 00:22:43;;;;;;;;;;;;;;;;;;1046474;28;1679;-50
2022/07/18 00:23:13;;;;;;;;;;;;;;;;;;1044017;28;4218;-50
2022/07/18 00:23:44;;;;;;;;;;;;;;;;;;1044282;28;1160;-50
2022/07/18 00:24:14;;;;;;;;;;;;;;;;;;1041810;28;4054;-52
2022/07/18 00:24:44;;;;;;;;;;;;;;;;;;1042120;28;1591;-53
2022/07/18 00:25:15;;;;;;;;;;;;;;;;;;1041425;28;3859;-50
2022/07/18 00:25:45;;;;;;;;;;;;;;;;;;1042052;28;1579;-51
2022/07/18 00:26:15;;;;;;;;;;;;;;;;;;1044130;28;3792;-50
2022/07/18 00:26:46;;;;;;;;;;;;;;;;;;1044121;28;1658;-49
2022/07/18 00:27:16;;;;;;;;;;;;;;;;;;1042835;28;3985;-52
2022/07/18 00:27:53;;;;;;;;;;;;;;;;;;1043923;28;1622;-49
2022/07/18 00:28:24;;;;;;;;;;;;;;;;;;1043859;28;3798;-52
2022/07/18 00:28:54;;;;;;;;;;;;;;;;;;1042548;28;1681;-52
2022/07/18 00:29:25;;;;;;;;;;;;;;;;;;1041760;28;4377;-52
2022/07/18 00:29:55;;;;;;;;;;;;;;;;;;1042424;28;1383;-51
2022/07/18 00:30:25;;;;;;;;;;;;;;;;;;1041229;28;3791;-51
2022/07/18 00:30:55;;;;;;;;;;;;;;;;;;1045058;28;1647;-53
2022/07/18 00:31:26;;;;;;;;;;;;;;;;;;1042554;28;3753;-48
2022/07/18 00:31:56;;;;;;;;;;;;;;;;;;1044479;28;1261;-51
2022/07/18 00:32:27;;;;;;;;;;;;;;;;;;1040477;28;4052;-50
2022/07/18 00:32:57;;;;;;;;;;;;;;;;;;1041948;28;1758;-53
2022/07/18 00:33:27;;;;;;;;;;;;;;;;;;1040488;28;3902;-52
2022/07/18 00:33:58;;;;;;;;;;;;;;;;;;1040885;28;1797;-51
2022/07/18 00:34:28;;;;;;;;;;;;;;;;;;1043767;28;3880;-51
2022/07/18 00:34:58;;;;;;;;;;;;;;;;;;1045404;28;1546;-54
2022/07/18 00:35:28;;;;;;;;;;;;;;;;;;1043567;28;3839;-52
2022/07/18 00:35:59;;;;;;;;;;;;;;;;;;1041794;28;1722;-51
2022/07/18 00:36:29;;;;;;;;;;;;;;;;;;1041322;28;3792;-53
2022/07/18 00:37:00;;;;;;;;;;;;;;;;;;1042011;28;4820;-52
2022/07/18 00:37:30;;;;;;;;;;;;;;;;;;1042128;28;1864;-53
2022/07/18 00:38:03;;;;;;;;;;;;;;;;;;1041194;28;3985;-50
2022/07/18 00:38:34;;;;;;;;;;;;;;;;;;1041686;28;1601;-53
2022/07/18 00:39:04;;;;;;;;;;;;;;;;;;1040945;28;4008;-50
2022/07/18 00:39:35;;;;;;;;;;;;;;;;;;1037751;28;1735;-50
2022/07/18 00:40:05;;;;;;;;;;;;;;;;;;1039141;28;4013;-53
2022/07/18 00:40:35;;;;;;;;;;;;;;;;;;1041565;28;1117;-53
2022/07/18 00:41:07;;;;;;;;;;;;;;;;;;1035062;28;3838;-55
2022/07/18 00:41:37;;;;;;;;;;;;;;;;;;1043345;28;2906;-50
2022/07/18 00:42:07;;;;;;;;;;;;;;;;;;1042214;28;3928;-51
2022/07/18 00:42:38;;;;;;;;;;;;;;;;;;1039943;28;1646;-49
2022/07/18 00:43:08;;;;;;;;;;;;;;;;;;1041293;28;3793;-54
2022/07/18 00:43:38;;;;;;;;;;;;;;;;;;1043077;28;1612;-51
2022/07/18 00:44:15;;;;;;;;;;;;;;;;;;1041348;28;3895;-53
2022/07/18 00:44:45;;;;;;;;;;;;;;;;;;1045208;28;1567;-51
2022/07/18 00:45:16;;;;;;;;;;;;;;;;;;1044896;28;3804;-50
2022/07/18 00:45:47;;;;;;;;;;;;;;;;;;1045003;28;1603;-52
2022/07/18 00:46:22;;;;;;;;;;;;;;;;;;1040155;28;4229;-51
2022/07/18 00:46:53;;;;;;;;;;;;;;;;;;1040603;28;1310;-51
2022/07/18 00:47:23;;;;;;;;;;;;;;;;;;1039770;28;4053;-54
2022/07/18 00:47:54;;;;;;;;;;;;;;;;;;1040960;28;1436;-50
2022/07/18 00:48:24;;;;;;;;;;;;;;;;;;1044090;28;4189;-54
2022/07/18 00:48:55;;;;;;;;;;;;;;;;;;1044936;28;1539;-51
2022/07/18 00:49:26;;;;;;;;;;;;;;;;;;1040554;28;3858;-52
2022/07/18 00:49:56;;;;;;;;;;;;;;;;;;1042535;28;1674;-52
2022/07/18 00:50:26;;;;;;;;;;;;;;;;;;1041244;28;4075;-50
2022/07/18 00:50:56;;;;;;;;;;;;;;;;;;1042380;28;950;-52
2022/07/18 00:51:27;;;;;;;;;;;;;;;;;;1044031;28;3748;-51
2022/07/18 00:51:57;;;;;;;;;;;;;;;;;;1044998;28;1747;-54
2022/07/18 00:52:27;;;;;;;;;;;;;;;;;;1043831;28;3926;-50
2022/07/18 00:52:57;;;;;;;;;;;;;;;;;;1045817;28;1381;-52
2022/07/18 00:53:28;;;;;;;;;;;;;;;;;;1044747;28;4190;-53
2022/07/18 00:53:58;;;;;;;;;;;;;;;;;;1044993;28;1674;-53
2022/07/18 00:54:31;;;;;;;;;;;;;;;;;;1043470;28;3904;-51
2022/07/18 00:55:02;;;;;;;;;;;;;;;;;;1044662;28;4364;-50
2022/07/18 00:55:32;;;;;;;;;;;;;;;;;;1045992;28;1449;-53
2022/07/18 00:56:03;;;;;;;;;;;;;;;;;;1045198;28;3858;-52
2022/07/18 00:56:34;;;;;;;;;;;;;;;;;;1042040;28;2609;-55
2022/07/18 00:57:04;;;;;;;;;;;;;;;;;;1041945;28;3963;-52
2022/07/18 00:57:35;;;;;;;;;;;;;;;;;;1042207;28;1801;-50
2022/07/18 00:58:05;;;;;;;;;;;;;;;;;;1042425;28;3785;-51
2022/07/18 00:58:36;;;;;;;;;;;;;;;;;;1044468;28;1691;-51
2022/07/18 00:59:06;;;;;;;;;;;;;;;;;;1041120;28;4777;-54
2022/07/18 01:02:03;;;;;;;;;;;;;;;;;;1041586;28;3986;-52
2022/07/18 01:02:34;;;;;;;;;;;;;;;;;;1041477;28;1708;-53
2022/07/18 01:03:04;;;;;;;;;;;;;;;;;;1041878;28;3890;-53
2022/07/18 01:03:34;;;;;;;;;;;;;;;;;;1041684;28;1856;-52
2022/07/18 01:04:04;;;;;;;;;;;;;;;;;;1045913;28;4406;-53
2022/07/18 01:04:34;;;;;;;;;;;;;;;;;;1044300;28;1832;-52
2022/07/18 01:05:05;;;;;;;;;;;;;;;;;;1045285;28;4028;-53
2022/07/18 01:05:36;;;;;;;;;;;;;;;;;;1045301;28;1736;-52
2022/07/18 01:06:06;;;;;;;;;;;;;;;;;;1040577;28;4416;-53
2022/07/18 01:06:37;;;;;;;;;;;;;;;;;;1040705;28;1640;-55
2022/07/18 01:07:07;;;;;;;;;;;;;;;;;;1040008;28;4474;-52
2022/07/18 01:07:37;;;;;;;;;;;;;;;;;;1040660;28;1811;-51
2022/07/18 01:08:07;;;;;;;;;;;;;;;;;;1044481;28;4153;-51
2022/07/18 01:08:41;;;;;;;;;;;;;;;;;;1044196;28;1588;-52
2022/07/18 01:09:11;;;;;;;;;;;;;;;;;;1039322;28;4077;-52
2022/07/18 01:09:42;;;;;;;;;;;;;;;;;;1039981;28;1800;-53
2022/07/18 01:10:12;;;;;;;;;;;;;;;;;;1040914;28;3962;-51
2022/07/18 01:10:43;;;;;;;;;;;;;;;;;;1044971;28;2088;-54
2022/07/18 01:11:13;;;;;;;;;;;;;;;;;;1043387;28;4662;-54
2022/07/18 01:11:45;;;;;;;;;;;;;;;;;;1045211;28;1612;-52
2022/07/18 01:12:15;;;;;;;;;;;;;;;;;;1044319;28;3889;-51
2022/07/18 01:12:46;;;;;;;;;;;;;;;;;;1040841;28;1317;-50
2022/07/18 01:13:16;;;;;;;;;;;;;;;;;;1039910;28;4360;-51
2022/07/18 01:13:47;;;;;;;;;;;;;;;;;;1040444;28;1618;-48
2022/07/18 01:14:24;;;;;;;;;;;;;;;;;;1038985;28;3951;-53
2022/07/18 01:15:01;;;;;;;;;;;;;;;;;;1040366;28;1688;-52
2022/07/18 01:15:38;;;;;;;;;;;;;;;;;;1039104;28;3953;-51
2022/07/18 01:16:08;;;;;;;;;;;;;;;;;;1040786;28;4246;-47
2022/07/18 01:16:38;;;;;;;;;;;;;;;;;;1040960;28;1692;-51
2022/07/18 01:17:15;;;;;;;;;;;;;;;;;;1040484;28;3948;-53
2022/07/18 01:17:46;;;;;;;;;;;;;;;;;;1041947;28;1607;-50
2022/07/18 01:18:16;;;;;;;;;;;;;;;;;;1042014;28;4429;-51
2022/07/18 01:18:47;;;;;;;;;;;;;;;;;;1042059;28;1461;-55
2022/07/18 01:19:17;;;;;;;;;;;;;;;;;;1041786;28;3951;-50
2022/07/18 01:19:48;;;;;;;;;;;;;;;;;;1040496;28;1830;-50
2022/07/18 01:20:18;;;;;;;;;;;;;;;;;;1040868;28;4495;-52
2022/07/18 01:20:48;;;;;;;;;;;;;;;;;;1045875;28;1784;-51
2022/07/18 01:21:19;;;;;;;;;;;;;;;;;;1045771;28;4224;-53
2022/07/18 01:21:49;;;;;;;;;;;;;;;;;;1046315;28;1617;-51
2022/07/18 01:22:20;;;;;;;;;;;;;;;;;;1046213;28;4292;-54
2022/07/18 01:22:50;;;;;;;;;;;;;;;;;;1044718;28;1613;-49
2022/07/18 01:23:20;;;;;;;;;;;;;;;;;;1043704;28;4060;-51
2022/07/18 01:23:51;;;;;;;;;;;;;;;;;;1042208;28;2215;-51
2022/07/18 01:24:21;;;;;;;;;;;;;;;;;;1039617;28;4854;-52
2022/07/18 01:24:51;;;;;;;;;;;;;;;;;;1041590;28;1760;-53
2022/07/18 01:25:22;;;;;;;;;;;;;;;;;;1039811;28;3919;-52
2022/07/18 01:25:52;;;;;;;;;;;;;;;;;;1041170;28;1932;-55
2022/07/18 01:26:23;;;;;;;;;;;;;;;;;;1039218;28;3789;-53
2022/07/18 01:27:00;;;;;;;;;;;;;;;;;;1041136;28;4247;-52
2022/07/18 01:27:31;;;;;;;;;;;;;;;;;;1042313;28;1716;-50
2022/07/18 01:28:01;;;;;;;;;;;;;;;;;;1041682;28;3824;-48
2022/07/18 01:28:31;;;;;;;;;;;;;;;;;;1042377;28;1639;-51
2022/07/18 01:29:02;;;;;;;;;;;;;;;;;;1041727;28;3910;-51
2022/07/18 01:29:32;;;;;;;;;;;;;;;;;;1041156;28;1563;-50
2022/07/18 01:30:03;;;;;;;;;;;;;;;;;;1040303;28;4041;-53
2022/07/18 01:30:33;;;;;;;;;;;;;;;;;;1041268;28;1735;-51
2022/07/18 01:31:04;;;;;;;;;;;;;;;;;;1040254;28;3866;-50
2022/07/18 01:31:34;;;;;;;;;;;;;;;;;;1041429;28;1614;-49
2022/07/18 01:32:05;;;;;;;;;;;;;;;;;;1039958;28;3881;-56
2022/07/18 01:32:36;;;;;;;;;;;;;;;;;;1041222;28;1677;-50
2022/07/18 01:33:06;;;;;;;;;;;;;;;;;;1039885;28;4079;-52
2022/07/18 01:33:37;;;;;;;;;;;;;;;;;;1041123;28;1983;-51
2022/07/18 01:34:07;;;;;;;;;;;;;;;;;;1040495;28;4011;-51
2022/07/18 01:34:38;;;;;;;;;;;;;;;;;;1041643;28;1970;-47
2022/07/18 01:35:08;;;;;;;;;;;;;;;;;;1040560;28;3894;-54
2022/07/18 01:35:39;;;;;;;;;;;;;;;;;;1040290;28;1552;-50
2022/07/18 01:36:09;;;;;;;;;;;;;;;;;;1040238;28;4008;-51
2022/07/18 01:36:40;;;;;;;;;;;;;;;;;;1040693;28;1431;-50
2022/07/18 01:37:10;;;;;;;;;;;;;;;;;;1040221;28;4122;-53
2022/07/18 01:37:40;;;;;;;;;;;;;;;;;;1040871;28;1547;-53
2022/07/18 01:38:11;;;;;;;;;;;;;;;;;;1045245;28;3803;-53
2022/07/18 01:38:41;;;;;;;;;;;;;;;;;;1042631;28;1594;-54
2022/07/18 01:39:11;;;;;;;;;;;;;;;;;;1041635;28;4400;-51
2022/07/18 01:39:42;;;;;;;;;;;;;;;;;;1042691;28;1435;-55
2022/07/18 01:40:13;;;;;;;;;;;;;;;;;;1041519;28;4378;-50
2022/07/18 01:40:43;;;;;;;;;;;;;;;;;;1040886;28;1788;-52
2022/07/18 01:41:13;;;;;;;;;;;;;;;;;;1040049;28;3970;-48
2022/07/18 01:41:44;;;;;;;;;;;;;;;;;;1042369;28;1716;-51
2022/07/18 01:42:14;;;;;;;;;;;;;;;;;;1037839;28;4215;-52
2022/07/18 01:42:45;;;;;;;;;;;;;;;;;;1038914;28;1613;-52
2022/07/18 01:43:15;;;;;;;;;;;;;;;;;;1038158;28;4049;-49
2022/07/18 01:43:45;;;;;;;;;;;;;;;;;;1040942;28;1869;-48
2022/07/18 01:44:16;;;;;;;;;;;;;;;;;;1043563;28;4348;-48
2022/07/18 01:44:46;;;;;;;;;;;;;;;;;;1045518;28;1577;-53
2022/07/18 01:45:16;;;;;;;;;;;;;;;;;;1043109;28;4033;-52
2022/07/18 01:45:47;;;;;;;;;;;;;;;;;;1041111;28;1988;-52
2022/07/18 01:46:17;;;;;;;;;;;;;;;;;;1040232;28;4138;-52
2022/07/18 01:46:48;;;;;;;;;;;;;;;;;;1040625;28;1771;-53
2022/07/18 01:47:18;;;;;;;;;;;;;;;;;;1040800;28;3890;-50
2022/07/18 01:47:48;;;;;;;;;;;;;;;;;;1041268;28;1561;-51
2022/07/18 01:48:19;;;;;;;;;;;;;;;;;;1040281;28;3882;-49
2022/07/18 01:48:49;;;;;;;;;;;;;;;;;;1040493;28;1292;-49
2022/07/18 01:49:19;;;;;;;;;;;;;;;;;;1040964;28;4090;-50
2022/07/18 01:49:50;;;;;;;;;;;;;;;;;;1037205;28;1664;-54
2022/07/18 01:50:20;;;;;;;;;;;;;;;;;;1035356;28;3924;-52
2022/07/18 01:50:51;;;;;;;;;;;;;;;;;;1036890;28;1677;-54
2022/07/18 01:51:21;;;;;;;;;;;;;;;;;;1036963;28;3802;-51
2022/07/18 01:51:53;;;;;;;;;;;;;;;;;;1041020;28;1665;-52
2022/07/18 01:52:23;;;;;;;;;;;;;;;;;;1039726;28;4379;-52
2022/07/18 01:52:54;;;;;;;;;;;;;;;;;;1041485;28;1365;-54
2022/07/18 01:53:25;;;;;;;;;;;;;;;;;;1039074;28;4257;-49
2022/07/18 01:53:58;;;;;;;;;;;;;;;;;;1041100;28;1572;-54
2022/07/18 01:54:29;;;;;;;;;;;;;;;;;;1039911;28;3983;-52
2022/07/18 01:55:00;;;;;;;;;;;;;;;;;;1041417;28;1594;-54
2022/07/18 01:55:30;;;;;;;;;;;;;;;;;;1042069;28;3949;-55
2022/07/18 01:56:01;;;;;;;;;;;;;;;;;;1041236;28;3929;-55
2022/07/18 01:56:31;;;;;;;;;;;;;;;;;;1042783;28;1694;-50
2022/07/18 01:57:02;;;;;;;;;;;;;;;;;;1040010;28;3826;-50
2022/07/18 01:57:33;;;;;;;;;;;;;;;;;;1045047;28;1965;-55
2022/07/18 01:58:04;;;;;;;;;;;;;;;;;;1043793;28;4440;-50
2022/07/18 01:58:34;;;;;;;;;;;;;;;;;;1046688;28;1392;-48
2022/07/18 01:59:04;;;;;;;;;;;;;;;;;;1043776;28;3974;-52
2022/07/18 01:59:35;;;;;;;;;;;;;;;;;;1045600;28;1772;-51
2022/07/18 02:00:06;;;;;;;;;;;;;;;;;;1044213;28;3846;-49
2022/07/18 02:00:37;;;;;;;;;;;;;;;;;;1044732;28;1551;-48
2022/07/18 02:01:07;;;;;;;;;;;;;;;;;;1042613;28;4241;-55
2022/07/18 02:01:37;;;;;;;;;;;;;;;;;;1043971;28;1420;-55
2022/07/18 02:02:08;;;;;;;;;;;;;;;;;;1040374;28;4069;-51
2022/07/18 02:02:39;;;;;;;;;;;;;;;;;;1043230;28;1537;-51
2022/07/18 02:03:09;;;;;;;;;;;;;;;;;;1041971;28;3784;-51
2022/07/18 02:03:39;;;;;;;;;;;;;;;;;;1043526;28;1674;-52
2022/07/18 02:04:10;;;;;;;;;;;;;;;;;;1045634;28;3938;-53
2022/07/18 02:05:29;;;;;;;;;;;;;;;;;;1040837;28;3863;-53
2022/07/18 02:05:59;;;;;;;;;;;;;;;;;;1042924;28;1551;-51
2022/07/18 02:06:30;;;;;;;;;;;;;;;;;;1042564;28;3911;-52
2022/07/18 02:07:00;;;;;;;;;;;;;;;;;;1042468;28;4019;-55
2022/07/18 02:07:30;;;;;;;;;;;;;;;;;;1042892;28;1691;-50
2022/07/18 02:08:01;;;;;;;;;;;;;;;;;;1041012;28;3854;-51
2022/07/18 02:08:31;;;;;;;;;;;;;;;;;;1041391;28;2046;-52
2022/07/18 02:09:02;;;;;;;;;;;;;;;;;;1041801;28;3830;-52
2022/07/18 02:09:32;;;;;;;;;;;;;;;;;;1040875;28;1302;-55
2022/07/18 02:10:06;;;;;;;;;;;;;;;;;;1040659;28;3859;-52
2022/07/18 02:10:36;;;;;;;;;;;;;;;;;;1040726;28;1628;-51
2022/07/18 02:11:07;;;;;;;;;;;;;;;;;;1041445;28;3783;-53
2022/07/18 02:11:37;;;;;;;;;;;;;;;;;;1042316;28;1579;-52
2022/07/18 02:12:07;;;;;;;;;;;;;;;;;;1041226;28;4209;-50
2022/07/18 02:12:38;;;;;;;;;;;;;;;;;;1040753;28;1453;-49
2022/07/18 02:13:08;;;;;;;;;;;;;;;;;;1041583;28;3776;-47
2022/07/18 02:13:39;;;;;;;;;;;;;;;;;;1040172;28;2013;-54
2022/07/18 02:14:16;;;;;;;;;;;;;;;;;;1040569;28;4445;-51
2022/07/18 02:14:53;;;;;;;;;;;;;;;;;;1036319;28;1865;-53
2022/07/18 02:15:30;;;;;;;;;;;;;;;;;;1035594;28;3715;-53
2022/07/18 02:16:00;;;;;;;;;;;;;;;;;;1036023;28;3973;-50
2022/07/18 02:16:31;;;;;;;;;;;;;;;;;;1037707;28;1372;-51
2022/07/18 02:17:01;;;;;;;;;;;;;;;;;;1038130;28;4137;-50
2022/07/18 02:17:32;;;;;;;;;;;;;;;;;;1037946;28;1649;-50
2022/07/18 02:18:02;;;;;;;;;;;;;;;;;;1037130;28;4229;-49
2022/07/18 02:18:32;;;;;;;;;;;;;;;;;;1038249;28;1375;-53
2022/07/18 02:19:03;;;;;;;;;;;;;;;;;;1036332;28;3929;-50
2022/07/18 02:19:33;;;;;;;;;;;;;;;;;;1036401;28;1695;-56
2022/07/18 02:20:08;;;;;;;;;;;;;;;;;;1036235;28;3824;-50
2022/07/18 02:20:38;;;;;;;;;;;;;;;;;;1037171;28;1432;-53
2022/07/18 02:21:09;;;;;;;;;;;;;;;;;;1037489;28;3887;-51
2022/07/18 02:21:39;;;;;;;;;;;;;;;;;;1036770;28;1677;-51
2022/07/18 02:22:09;;;;;;;;;;;;;;;;;;1036293;28;3884;-50
2022/07/18 02:22:39;;;;;;;;;;;;;;;;;;1036695;28;1678;-53
2022/07/18 02:23:10;;;;;;;;;;;;;;;;;;1037018;28;3885;-52
2022/07/18 02:23:40;;;;;;;;;;;;;;;;;;1037979;28;1562;-51
2022/07/18 02:24:11;;;;;;;;;;;;;;;;;;1035736;28;3851;-49
2022/07/18 02:24:41;;;;;;;;;;;;;;;;;;1036870;28;1601;-52
2022/07/18 02:25:12;;;;;;;;;;;;;;;;;;1037972;28;3783;-49
2022/07/18 02:25:42;;;;;;;;;;;;;;;;;;1037626;28;2179;-48
2022/07/18 02:26:12;;;;;;;;;;;;;;;;;;1036942;28;3849;-53
2022/07/18 02:26:43;;;;;;;;;;;;;;;;;;1035841;28;1716;-53
2022/07/18 02:27:19;;;;;;;;;;;;;;;;;;1036253;28;4184;-53
2022/07/18 02:27:50;;;;;;;;;;;;;;;;;;1039439;28;1709;-50
2022/07/18 02:28:20;;;;;;;;;;;;;;;;;;1038796;28;3781;-51
2022/07/18 02:28:50;;;;;;;;;;;;;;;;;;1039347;28;1763;-53
2022/07/18 02:29:21;;;;;;;;;;;;;;;;;;1038086;28;4016;-51
2022/07/18 02:29:51;;;;;;;;;;;;;;;;;;1037086;28;1880;-50
2022/07/18 02:30:21;;;;;;;;;;;;;;;;;;1036603;28;3821;-50
2022/07/18 02:30:52;;;;;;;;;;;;;;;;;;1029647;28;1396;-51
2022/07/18 02:31:23;;;;;;;;;;;;;;;;;;1028267;28;4112;-50
2022/07/18 02:31:53;;;;;;;;;;;;;;;;;;1034957;28;1283;-50
2022/07/18 02:32:23;;;;;;;;;;;;;;;;;;1033706;28;4083;-53
2022/07/18 02:32:55;;;;;;;;;;;;;;;;;;1038954;28;1673;-50
2022/07/18 02:33:25;;;;;;;;;;;;;;;;;;1037746;28;4395;-50
2022/07/18 02:33:55;;;;;;;;;;;;;;;;;;1034833;28;1601;-52
2022/07/18 02:34:25;;;;;;;;;;;;;;;;;;1034054;28;3859;-48
2022/07/18 02:34:56;;;;;;;;;;;;;;;;;;1039096;28;1722;-50
2022/07/18 02:35:26;;;;;;;;;;;;;;;;;;1037870;28;4359;-49
2022/07/18 02:35:56;;;;;;;;;;;;;;;;;;1036310;28;1623;-49
2022/07/18 02:36:26;;;;;;;;;;;;;;;;;;1036296;28;4174;-49
2022/07/18 02:36:57;;;;;;;;;;;;;;;;;;1037372;28;1318;-54
2022/07/18 02:37:27;;;;;;;;;;;;;;;;;;1036555;28;3770;-52
2022/07/18 02:37:57;;;;;;;;;;;;;;;;;;1041228;28;1730;-52
2022/07/18 02:38:28;;;;;;;;;;;;;;;;;;1040302;28;4043;-54
2022/07/18 02:38:58;;;;;;;;;;;;;;;;;;1040767;28;1624;-50
2022/07/18 02:39:29;;;;;;;;;;;;;;;;;;1037903;28;4880;-50
2022/07/18 02:39:59;;;;;;;;;;;;;;;;;;1039030;28;1834;-50
2022/07/18 02:40:29;;;;;;;;;;;;;;;;;;1037963;28;3957;-51
2022/07/18 02:40:59;;;;;;;;;;;;;;;;;;1038783;28;1874;-53
2022/07/18 02:41:30;;;;;;;;;;;;;;;;;;1037366;28;3700;-48
2022/07/18 02:42:00;;;;;;;;;;;;;;;;;;1037113;28;4238;-50
2022/07/18 02:42:31;;;;;;;;;;;;;;;;;;1036998;28;1700;-47
2022/07/18 02:43:01;;;;;;;;;;;;;;;;;;1036664;28;4239;-52
2022/07/18 02:43:32;;;;;;;;;;;;;;;;;;1036635;28;1718;-52
2022/07/18 02:44:03;;;;;;;;;;;;;;;;;;1036705;28;3880;-50
2022/07/18 02:44:33;;;;;;;;;;;;;;;;;;1037597;28;1704;-52
2022/07/18 02:45:04;;;;;;;;;;;;;;;;;;1037172;28;4086;-51
2022/07/18 02:45:42;;;;;;;;;;;;;;;;;;1037884;28;1744;-51
2022/07/18 02:46:12;;;;;;;;;;;;;;;;;;1036615;28;3876;-51
2022/07/18 02:46:42;;;;;;;;;;;;;;;;;;1036593;28;1610;-51
2022/07/18 02:47:12;;;;;;;;;;;;;;;;;;1036767;28;3935;-50
2022/07/18 02:47:43;;;;;;;;;;;;;;;;;;1037099;28;1703;-52
2022/07/18 02:48:13;;;;;;;;;;;;;;;;;;1037523;28;3942;-53
2022/07/18 02:48:43;;;;;;;;;;;;;;;;;;1036910;28;1675;-51
2022/07/18 02:49:26;;;;;;;;;;;;;;;;;;1036358;28;3773;-49
2022/07/18 02:49:56;;;;;;;;;;;;;;;;;;1038206;28;1737;-50
2022/07/18 02:50:27;;;;;;;;;;;;;;;;;;1037471;28;4040;-53
2022/07/18 02:50:57;;;;;;;;;;;;;;;;;;1039017;28;1708;-52
2022/07/18 02:51:27;;;;;;;;;;;;;;;;;;1037671;28;4383;-53
2022/07/18 02:51:59;;;;;;;;;;;;;;;;;;1038847;28;1583;-48
2022/07/18 02:52:29;;;;;;;;;;;;;;;;;;1037957;28;3795;-51
2022/07/18 02:53:00;;;;;;;;;;;;;;;;;;1037144;28;1650;-47
2022/07/18 02:53:30;;;;;;;;;;;;;;;;;;1037335;28;3877;-50
2022/07/18 02:54:00;;;;;;;;;;;;;;;;;;1037053;28;4009;-48
2022/07/18 02:54:34;;;;;;;;;;;;;;;;;;1037713;28;1593;-50
2022/07/18 02:55:04;;;;;;;;;;;;;;;;;;1036835;28;4243;-48
2022/07/18 02:55:35;;;;;;;;;;;;;;;;;;1035801;28;2065;-54
2022/07/18 02:56:05;;;;;;;;;;;;;;;;;;1036343;28;3875;-51
2022/07/18 02:56:35;;;;;;;;;;;;;;;;;;1037003;28;1801;-49
2022/07/18 02:57:06;;;;;;;;;;;;;;;;;;1037435;28;4043;-52
2022/07/18 02:57:36;;;;;;;;;;;;;;;;;;1037072;28;1490;-49
2022/07/18 02:58:06;;;;;;;;;;;;;;;;;;1037782;28;3737;-50
2022/07/18 02:58:37;;;;;;;;;;;;;;;;;;1037146;28;1770;-48
2022/07/18 02:59:07;;;;;;;;;;;;;;;;;;1037401;28;4030;-49
2022/07/18 02:59:38;;;;;;;;;;;;;;;;;;1037363;28;1774;-54
2022/07/18 03:00:10;;;;;;;;;;;;;;;;;;1036545;28;4003;-49
2022/07/18 03:00:40;;;;;;;;;;;;;;;;;;1038240;28;1658;-49
2022/07/18 03:01:11;;;;;;;;;;;;;;;;;;1037092;28;4360;-51
2022/07/18 03:01:41;;;;;;;;;;;;;;;;;;1036562;28;2275;-51
2022/07/18 03:02:12;;;;;;;;;;;;;;;;;;1037675;28;3866;-51
2022/07/18 03:02:43;;;;;;;;;;;;;;;;;;1037200;28;1758;-50
2022/07/18 03:03:13;;;;;;;;;;;;;;;;;;1037667;28;4144;-50
2022/07/18 03:03:43;;;;;;;;;;;;;;;;;;1038048;28;1788;-50
2022/07/18 03:04:14;;;;;;;;;;;;;;;;;;1038220;28;4097;-50
2022/07/18 03:04:44;;;;;;;;;;;;;;;;;;1038015;28;1723;-51
2022/07/18 03:05:14;;;;;;;;;;;;;;;;;;1038255;28;4383;-53
2022/07/18 03:05:45;;;;;;;;;;;;;;;;;;1038580;28;1901;-51
2022/07/18 03:06:15;;;;;;;;;;;;;;;;;;1036866;28;4355;-48
2022/07/18 03:06:46;;;;;;;;;;;;;;;;;;1037264;28;1555;-48
2022/07/18 03:07:16;;;;;;;;;;;;;;;;;;1036585;28;3929;-53
2022/07/18 03:07:46;;;;;;;;;;;;;;;;;;1037313;28;1580;-55
2022/07/18 03:08:16;;;;;;;;;;;;;;;;;;1036709;28;3797;-49
2022/07/18 03:08:47;;;;;;;;;;;;;;;;;;1036646;28;2166;-51
2022/07/18 03:09:18;;;;;;;;;;;;;;;;;;1036361;28;4150;-52
2022/07/18 03:09:48;;;;;;;;;;;;;;;;;;1036621;28;1737;-53
2022/07/18 03:10:18;;;;;;;;;;;;;;;;;;1036112;28;3765;-54
2022/07/18 03:10:49;;;;;;;;;;;;;;;;;;1042115;28;1629;-50
2022/07/18 03:11:19;;;;;;;;;;;;;;;;;;1037687;28;4202;-49
2022/07/18 03:11:49;;;;;;;;;;;;;;;;;;1037442;28;1872;-53
2022/07/18 03:12:19;;;;;;;;;;;;;;;;;;1038391;28;3960;-52
2022/07/18 03:12:50;;;;;;;;;;;;;;;;;;1038391;28;1656;-53
2022/07/18 03:13:20;;;;;;;;;;;;;;;;;;1032202;28;3781;-52
2022/07/18 03:13:50;;;;;;;;;;;;;;;;;;1033579;28;1664;-51
2022/07/18 03:14:27;;;;;;;;;;;;;;;;;;1036926;28;4041;-49
2022/07/18 03:15:04;;;;;;;;;;;;;;;;;;1036313;28;1663;-50
2022/07/18 03:15:41;;;;;;;;;;;;;;;;;;1036464;28;3879;-53
2022/07/18 03:16:11;;;;;;;;;;;;;;;;;;1036577;28;3871;-52
2022/07/18 03:16:42;;;;;;;;;;;;;;;;;;1037902;28;1591;-51
2022/07/18 03:17:12;;;;;;;;;;;;;;;;;;1038272;28;3855;-51
2022/07/18 03:17:42;;;;;;;;;;;;;;;;;;1038033;28;1608;-52
2022/07/18 03:18:12;;;;;;;;;;;;;;;;;;1036839;28;3774;-52
2022/07/18 03:18:43;;;;;;;;;;;;;;;;;;1038141;28;1597;-51
2022/07/18 03:19:13;;;;;;;;;;;;;;;;;;1036161;28;4212;-48
2022/07/18 03:19:43;;;;;;;;;;;;;;;;;;1038806;28;1471;-49
2022/07/18 03:20:14;;;;;;;;;;;;;;;;;;1037674;28;4415;-52
2022/07/18 03:20:44;;;;;;;;;;;;;;;;;;1035400;28;1125;-48
2022/07/18 03:21:15;;;;;;;;;;;;;;;;;;1034416;28;4205;-51
2022/07/18 03:21:45;;;;;;;;;;;;;;;;;;1039248;28;1764;-53
2022/07/18 03:22:15;;;;;;;;;;;;;;;;;;1038519;28;4011;-50
2022/07/18 03:22:45;;;;;;;;;;;;;;;;;;1036367;28;1657;-51
2022/07/18 03:23:16;;;;;;;;;;;;;;;;;;1037098;28;4451;-54
2022/07/18 03:23:46;;;;;;;;;;;;;;;;;;1037987;28;1608;-50
2022/07/18 03:24:16;;;;;;;;;;;;;;;;;;1037169;28;3777;-48
2022/07/18 03:24:47;;;;;;;;;;;;;;;;;;1037152;28;1723;-52
2022/07/18 03:25:17;;;;;;;;;;;;;;;;;;1036981;28;5140;-54
2022/07/18 03:25:47;;;;;;;;;;;;;;;;;;1038198;28;1356;-51
2022/07/18 03:26:18;;;;;;;;;;;;;;;;;;1036773;28;3764;-53
2022/07/18 03:26:48;;;;;;;;;;;;;;;;;;1037601;28;1325;-53
2022/07/18 03:27:18;;;;;;;;;;;;;;;;;;1035938;28;3973;-51
2022/07/18 03:27:48;;;;;;;;;;;;;;;;;;1037599;28;1623;-51
2022/07/18 03:28:19;;;;;;;;;;;;;;;;;;1035716;28;4045;-53
2022/07/18 03:28:49;;;;;;;;;;;;;;;;;;1038552;28;1680;-50
2022/07/18 03:29:19;;;;;;;;;;;;;;;;;;1036984;28;3961;-47
2022/07/18 03:29:49;;;;;;;;;;;;;;;;;;1037376;28;1606;-54
2022/07/18 03:30:20;;;;;;;;;;;;;;;;;;1037747;28;4071;-48
2022/07/18 03:30:50;;;;;;;;;;;;;;;;;;1038788;28;1409;-50
2022/07/18 03:31:20;;;;;;;;;;;;;;;;;;1037708;28;4032;-50
2022/07/18 03:31:51;;;;;;;;;;;;;;;;;;1038986;28;1532;-52
2022/07/18 03:32:21;;;;;;;;;;;;;;;;;;1037501;28;3837;-53
2022/07/18 03:32:51;;;;;;;;;;;;;;;;;;1037666;28;1701;-52
2022/07/18 03:33:21;;;;;;;;;;;;;;;;;;1034691;28;3988;-54
2022/07/18 03:33:52;;;;;;;;;;;;;;;;;;1037773;28;1602;-50
2022/07/18 03:34:22;;;;;;;;;;;;;;;;;;1038136;28;3821;-52
2022/07/18 03:34:52;;;;;;;;;;;;;;;;;;1039045;28;1830;-49
2022/07/18 03:35:22;;;;;;;;;;;;;;;;;;1037896;28;3973;-50
2022/07/18 03:35:53;;;;;;;;;;;;;;;;;;1035499;28;1667;-52
2022/07/18 03:36:23;;;;;;;;;;;;;;;;;;1038025;28;3848;-48
2022/07/18 03:36:53;;;;;;;;;;;;;;;;;;1038361;28;1785;-48
2022/07/18 03:37:23;;;;;;;;;;;;;;;;;;1038627;28;3910;-50